Time;durP1;ratioP1;P1;durP2;ratioP2;P2;SDS_P1;SDS_P2;PMS_P1;PMS_P2;Temp;Humidity;BMP_temperature;BMP_pressure;BME280_temperature;BME280_humidity;BME280_pressure;Samples;Min_cycle;Max_cycle;Signal;HPM_P1;HPM_P2
2022/12/28 00:01:24;;;;;;;4.20;3.10;;;;;;;6.47;100.00;99845.02;1766264;81;21581;-59
2022/12/28 00:03:52;;;;;;;4.93;3.20;;;;;;;6.45;100.00;99841.80;1758894;81;21124;-66
2022/12/28 00:06:21;;;;;;;4.63;3.10;;;;;;;6.45;100.00;99844.39;1753135;81;21542;-59
2022/12/28 00:08:48;;;;;;;4.93;3.43;;;;;;;6.49;100.00;99841.80;1753544;81;21773;-60
2022/12/28 00:11:17;;;;;;;4.07;2.50;;;;;;;6.57;100.00;99842.25;1753114;81;21722;-59
2022/12/28 00:13:45;;;;;;;4.43;2.80;;;;;;;6.56;100.00;99844.53;1753034;81;21840;-66
2022/12/28 00:16:30;;;;;;;4.23;2.63;;;;;;;6.58;100.00;99840.78;1752287;81;21220;-59
2022/12/28 00:18:58;;;;;;;4.70;2.90;;;;;;;6.57;100.00;99839.17;1753169;81;21581;-59
2022/12/28 00:21:26;;;;;;;4.80;2.70;;;;;;;6.59;100.00;99836.41;1752623;81;21282;-61
2022/12/28 00:23:56;;;;;;;4.40;2.93;;;;;;;6.55;100.00;99839.84;1751732;81;21422;-58
2022/12/28 00:26:26;;;;;;;4.53;2.63;;;;;;;6.51;100.00;99844.20;1752914;81;21255;-58
2022/12/28 00:28:54;;;;;;;5.00;2.87;;;;;;;6.47;100.00;99837.25;1752584;81;21340;-59
2022/12/28 00:31:21;;;;;;;3.90;2.50;;;;;;;6.45;100.00;99840.52;1752306;81;21280;-61
2022/12/28 00:33:48;;;;;;;4.17;2.70;;;;;;;6.43;100.00;99846.82;1751831;81;21099;-60
2022/12/28 00:36:16;;;;;;;4.83;2.90;;;;;;;6.41;100.00;99848.78;1751946;81;21279;-59
2022/12/28 00:38:43;;;;;;;4.67;3.00;;;;;;;6.37;100.00;99842.33;1752791;81;21879;-58
2022/12/28 00:41:10;;;;;;;4.30;3.10;;;;;;;6.31;100.00;99841.99;1752352;81;21218;-60
2022/12/28 00:43:38;;;;;;;4.03;2.70;;;;;;;6.29;100.00;99843.16;1751687;81;21212;-61
2022/12/28 00:46:05;;;;;;;4.83;2.83;;;;;;;6.25;100.00;99839.25;1752392;81;21789;-58
2022/12/28 00:48:34;;;;;;;4.70;3.00;;;;;;;6.23;100.00;99838.13;1752414;81;21176;-58
2022/12/28 00:51:12;;;;;;;4.90;3.13;;;;;;;6.20;100.00;99833.77;1752900;81;21121;-60
2022/12/28 00:53:39;;;;;;;5.13;3.20;;;;;;;6.18;100.00;99839.61;1752479;81;21722;-63
2022/12/28 00:56:18;;;;;;;4.50;2.93;;;;;;;6.19;100.00;99837.34;1752982;81;21958;-60
2022/12/28 00:58:45;;;;;;;5.20;3.43;;;;;;;6.17;100.00;99838.78;1752608;81;21450;-61
2022/12/28 01:01:17;;;;;;;4.57;3.30;;;;;;;6.12;100.00;99839.77;1752018;81;21712;-61
2022/12/28 01:03:46;;;;;;;4.90;2.93;;;;;;;6.07;100.00;99836.39;1756666;81;22134;-61
2022/12/28 01:06:16;;;;;;;5.30;3.27;;;;;;;6.07;100.00;99844.64;1765987;81;21353;-61
2022/12/28 01:08:44;;;;;;;6.10;4.23;;;;;;;6.10;100.00;99844.31;1766037;81;21268;-60
2022/12/28 01:11:20;;;;;;;6.40;4.30;;;;;;;6.11;100.00;99855.47;1764935;81;21848;-67
2022/12/28 01:13:47;;;;;;;5.77;4.13;;;;;;;6.04;100.00;99860.48;1765590;80;21680;-60
2022/12/28 01:16:24;;;;;;;6.03;4.17;;;;;;;6.01;100.00;99856.43;1765907;81;21793;-61
2022/12/28 01:18:55;;;;;;;6.40;4.40;;;;;;;5.95;100.00;99864.86;1765458;81;21238;-67
2022/12/28 01:21:24;;;;;;;6.50;4.20;;;;;;;5.94;100.00;99862.42;1765882;81;21560;-60
2022/12/28 01:24:00;;;;;;;7.20;4.47;;;;;;;5.90;100.00;99859.31;1766399;81;21336;-60
2022/12/28 01:26:27;;;;;;;6.77;4.33;;;;;;;5.85;100.00;99853.34;1766307;80;21694;-59
2022/12/28 01:28:56;;;;;;;6.43;4.47;;;;;;;5.84;100.00;99854.81;1765381;81;21185;-60
2022/12/28 01:31:24;;;;;;;9.03;4.80;;;;;;;5.82;100.00;99848.98;1766348;80;21221;-59
2022/12/28 01:33:51;;;;;;;7.77;5.03;;;;;;;5.80;100.00;99850.94;1766308;81;21809;-60
2022/12/28 01:36:23;;;;;;;9.00;6.50;;;;;;;5.77;100.00;99848.17;1766761;81;21187;-60
2022/12/28 01:38:55;;;;;;;8.90;6.00;;;;;;;5.69;100.00;99842.20;1765066;80;21194;-67
2022/12/28 01:41:24;;;;;;;9.20;5.70;;;;;;;5.70;100.00;99849.79;1766443;81;21007;-58
2022/12/28 01:43:57;;;;;;;9.00;6.23;;;;;;;5.68;100.00;99855.59;1766433;81;21861;-58
2022/12/28 01:46:43;;;;;;;9.50;6.47;;;;;;;5.62;100.00;99851.08;1765545;80;21599;-63
2022/12/28 01:49:21;;;;;;;10.00;6.30;;;;;;;5.59;100.00;99846.23;1766176;81;21292;-59
2022/12/28 01:52:20;;;;;;;9.07;6.47;;;;;;;5.55;100.00;99843.16;1765243;81;21206;-67
2022/12/28 01:55:00;;;;;;;9.93;7.27;;;;;;;5.52;100.00;99844.76;1765573;81;21617;-59
2022/12/28 01:57:31;;;;;;;9.63;6.60;;;;;;;5.51;100.00;99853.49;1765025;81;21300;-64
2022/12/28 02:00:09;;;;;;;10.93;7.63;;;;;;;5.49;100.00;99839.09;1765496;80;21615;-58
2022/12/28 02:02:42;;;;;;;11.00;6.90;;;;;;;5.42;100.00;99835.08;1765696;81;21495;-59
2022/12/28 02:05:09;;;;;;;11.27;7.37;;;;;;;5.39;100.00;99835.39;1729817;81;21149;-60
2022/12/28 02:07:54;;;;;;;10.80;7.47;;;;;;;5.36;100.00;99843.45;1734015;82;21523;-58
2022/12/28 02:10:23;;;;;;;11.97;8.20;;;;;;;5.34;100.00;99842.33;1734868;82;21198;-60
2022/12/28 02:12:51;;;;;;;10.80;7.63;;;;;;;5.29;100.00;99847.64;1734827;81;21666;-58
2022/12/28 02:15:20;;;;;;;12.13;8.48;;;;;;;5.25;100.00;99843.76;1734243;82;21190;-59
2022/12/28 02:17:49;;;;;;;12.70;7.70;;;;;;;5.24;100.00;99850.70;1734720;81;20995;-60
2022/12/28 02:20:16;;;;;;;10.83;7.50;;;;;;;5.25;100.00;99854.09;1726331;82;21225;-58
2022/12/28 02:22:52;;;;;;;10.73;7.67;;;;;;;5.22;100.00;99857.79;1734611;82;21714;-64
2022/12/28 02:26:02;;;;;;;11.73;7.97;;;;;;;5.13;100.00;99858.27;1734529;82;21309;-61
2022/12/28 02:29:04;;;;;;;12.63;8.33;;;;;;;5.10;100.00;99866.81;1734438;82;21286;-67
2022/12/28 02:32:01;;;;;;;10.78;7.58;;;;;;;5.04;100.00;99870.84;1735106;81;21210;-66
2022/12/28 02:34:38;;;;;;;12.07;8.00;;;;;;;5.00;100.00;99876.45;1735223;81;21035;-59
2022/12/28 02:37:09;;;;;;;12.33;8.20;;;;;;;4.97;100.00;99869.84;1734869;81;21141;-61
2022/12/28 02:39:43;;;;;;;13.38;9.10;;;;;;;4.93;100.00;99875.00;1734438;81;21804;-62
2022/12/28 02:42:10;;;;;;;13.07;8.53;;;;;;;4.88;100.00;99878.52;1734511;81;21115;-61
2022/12/28 02:50:12;;;;;;;13.30;8.70;;;;;;;4.73;100.00;99882.64;1735085;82;21296;-59
2022/12/28 02:53:38;;;;;;;13.53;8.40;;;;;;;4.63;100.00;99883.58;1726525;82;21044;-59
2022/12/28 02:56:31;;;;;;;9.05;6.05;;;;;;;4.50;100.00;99884.94;1697921;83;21413;-66
2022/12/28 02:59:09;;;;;;;10.48;6.42;;;;;;;4.29;100.00;99899.50;1698095;84;21011;-59
2022/12/28 03:02:19;;;;;;;8.38;5.12;;;;;;;4.09;100.00;99908.72;1719904;82;21011;-61
2022/12/28 03:08:13;;;;;;;6.53;4.05;;;;;;;3.97;100.00;99914.23;1746122;81;21005;-58
2022/12/28 03:08:18;;;;;;;6.60;4.10;;;;;;;3.84;100.00;99919.78;1751488;81;21025;-66
2022/12/28 03:10:58;;;;;;;5.60;3.22;;;;;;;3.75;100.00;99930.51;1754109;81;20929;-59
2022/12/28 03:13:41;;;;;;;6.12;3.37;;;;;;;3.66;100.00;99938.62;1754885;81;20952;-63
2022/12/28 03:16:25;;;;;;;5.47;3.10;;;;;;;3.57;100.00;99934.35;1753997;81;21099;-60
2022/12/28 03:32:56;;;;;;;2.92;1.72;;;;;;;3.20;100.00;99945.20;1754934;81;21115;-58
2022/12/28 03:35:36;;;;;;;3.00;1.60;;;;;;;3.13;100.00;99947.05;1755463;81;21422;-59
2022/12/28 03:38:03;;;;;;;3.20;1.47;;;;;;;3.11;100.00;99956.70;1735595;81;21771;-59
2022/12/28 03:40:39;;;;;;;3.05;1.52;;;;;;;3.08;100.00;99962.13;1754864;81;20968;-66
2022/12/28 03:46:33;;;;;;;1.82;0.90;;;;;;;3.03;100.00;99980.23;1754940;81;21027;-59
2022/12/28 03:49:00;;;;;;;3.47;1.32;;;;;;;3.02;100.00;99979.42;1754862;81;21005;-61
2022/12/28 03:51:29;;;;;;;2.72;1.00;;;;;;;3.01;100.00;99984.24;1754722;81;21239;-62
2022/12/28 03:53:58;;;;;;;2.45;1.10;;;;;;;3.01;100.00;99978.29;1754765;81;21189;-59
2022/12/28 03:56:27;;;;;;;1.87;0.60;;;;;;;3.00;100.00;99992.13;1755133;81;21838;-59
2022/12/28 03:58:55;;;;;;;1.87;0.68;;;;;;;2.96;100.00;99984.34;1755116;81;21015;-60
2022/12/28 04:01:26;;;;;;;1.23;0.60;;;;;;;2.95;100.00;99992.52;1755581;81;21416;-66
2022/12/28 04:03:53;;;;;;;1.52;0.50;;;;;;;2.89;100.00;99985.37;1754946;81;22207;-61
2022/12/28 04:06:21;;;;;;;1.35;0.65;;;;;;;2.87;100.00;99998.84;1755319;81;21298;-58
2022/12/28 04:08:49;;;;;;;2.05;0.72;;;;;;;2.87;100.00;100000.94;1755278;81;21494;-63
2022/12/28 04:11:17;;;;;;;1.50;0.40;;;;;;;2.85;100.00;100003.34;1755162;81;21012;-60
2022/12/28 04:13:46;;;;;;;2.77;0.50;;;;;;;2.80;100.00;100005.50;1754172;81;20995;-59
2022/12/28 04:16:17;;;;;;;3.15;0.33;;;;;;;2.77;100.00;100007.90;1755909;81;20980;-59
2022/12/28 04:18:44;;;;;;;1.50;0.60;;;;;;;2.76;100.00;100010.11;1754923;81;20941;-60
2022/12/28 04:21:12;;;;;;;1.05;0.50;;;;;;;2.73;100.00;100010.41;1754650;81;21423;-62
2022/12/28 04:23:41;;;;;;;0.90;0.42;;;;;;;2.72;100.00;100010.53;1754929;81;21474;-67
2022/12/28 04:26:16;;;;;;;1.02;0.30;;;;;;;2.71;100.00;100014.06;1753473;81;21718;-60
2022/12/28 04:28:44;;;;;;;1.17;0.42;;;;;;;2.69;100.00;100014.22;1754687;81;21142;-65
2022/12/28 04:31:17;;;;;;;1.07;0.50;;;;;;;2.68;100.00;100021.09;1754668;81;21107;-58
2022/12/28 04:33:46;;;;;;;1.60;0.53;;;;;;;2.66;100.00;100015.29;1753913;81;21007;-58
2022/12/28 04:36:14;;;;;;;1.12;0.47;;;;;;;2.70;100.00;100018.41;1755082;81;21045;-59
2022/12/28 04:38:42;;;;;;;2.60;0.50;;;;;;;2.72;100.00;100028.55;1726747;81;21506;-62
2022/12/28 04:41:10;;;;;;;1.45;0.50;;;;;;;2.70;100.00;100029.17;1755559;81;21076;-61
2022/12/28 04:43:38;;;;;;;0.90;0.37;;;;;;;2.68;100.00;100023.67;1754791;81;20989;-65
2022/12/28 04:46:12;;;;;;;1.40;0.40;;;;;;;2.67;100.00;100025.91;1755075;81;21129;-58
2022/12/28 04:48:40;;;;;;;1.55;0.50;;;;;;;2.64;100.00;100024.90;1754548;81;21384;-58
2022/12/28 04:51:11;;;;;;;1.37;0.42;;;;;;;2.61;100.00;100023.91;1755187;81;20932;-58
2022/12/28 04:53:39;;;;;;;0.98;0.37;;;;;;;2.59;100.00;100027.56;1754540;81;21130;-60
2022/12/28 04:56:07;;;;;;;0.90;0.40;;;;;;;2.55;100.00;100029.59;1754321;81;21475;-60
2022/12/28 04:58:36;;;;;;;2.00;0.70;;;;;;;2.53;100.00;100028.91;1755812;81;21622;-59
2022/12/28 05:01:10;;;;;;;1.02;0.53;;;;;;;2.52;100.00;100035.00;1755579;81;21000;-58
2022/12/28 05:03:39;;;;;;;2.02;0.68;;;;;;;2.51;100.00;100039.02;1754196;81;21822;-64
2022/12/28 05:06:10;;;;;;;2.42;0.70;;;;;;;2.47;100.00;100040.23;1752573;81;21260;-60
2022/12/28 05:08:37;;;;;;;3.10;0.70;;;;;;;2.44;100.00;100036.97;1752948;81;20980;-58
2022/12/28 05:11:08;;;;;;;1.32;0.42;;;;;;;2.42;100.00;100042.74;1752264;81;20886;-58
2022/12/28 05:13:35;;;;;;;1.27;0.57;;;;;;;2.42;100.00;100053.48;1752184;81;21059;-60
2022/12/28 05:16:04;;;;;;;1.12;0.37;;;;;;;2.41;100.00;100057.81;1750980;81;21539;-59
2022/12/28 05:18:31;;;;;;;1.47;0.80;;;;;;;2.40;100.00;100063.92;1752383;81;21208;-58
2022/12/28 05:21:03;;;;;;;1.37;0.50;;;;;;;2.39;100.00;100064.06;1752333;81;21105;-58
2022/12/28 05:23:32;;;;;;;1.75;0.62;;;;;;;2.39;100.00;100075.64;1751728;81;21510;-60
2022/12/28 05:25:59;;;;;;;2.22;0.75;;;;;;;2.36;100.00;100081.05;1751297;81;21348;-59
2022/12/28 05:28:26;;;;;;;2.10;0.75;;;;;;;2.36;100.00;100088.28;1752372;81;21051;-58
2022/12/28 05:31:00;;;;;;;1.45;0.57;;;;;;;2.35;100.00;100085.83;1752021;81;22371;-59
2022/12/28 05:33:28;;;;;;;2.30;0.70;;;;;;;2.35;100.00;100093.55;1751289;81;21043;-59
2022/12/28 05:35:56;;;;;;;1.67;0.60;;;;;;;2.35;100.00;100096.12;1751636;81;20991;-61
2022/12/28 05:38:23;;;;;;;2.25;0.70;;;;;;;2.31;100.00;100102.48;1752349;81;21787;-60
2022/12/28 05:40:51;;;;;;;1.72;0.70;;;;;;;2.28;100.00;100109.20;1752502;81;20981;-59
2022/12/28 05:43:19;;;;;;;2.00;0.62;;;;;;;2.27;100.00;100107.08;1751892;81;22161;-65
2022/12/28 05:45:47;;;;;;;1.35;0.53;;;;;;;2.26;100.00;100109.79;1751384;81;20995;-64
2022/12/28 05:48:14;;;;;;;2.47;0.90;;;;;;;2.26;100.00;100104.64;1752074;81;22015;-59
2022/12/28 05:50:41;;;;;;;1.50;0.57;;;;;;;2.26;100.00;100108.03;1752148;81;21011;-58
2022/12/28 05:53:09;;;;;;;1.80;0.95;;;;;;;2.26;100.00;100108.50;1751894;81;21087;-60
2022/12/28 05:55:36;;;;;;;1.15;0.50;;;;;;;2.25;100.00;100112.84;1752060;81;21113;-59
2022/12/28 05:58:04;;;;;;;1.80;0.60;;;;;;;2.25;100.00;100115.41;1751576;81;21033;-60
2022/12/28 06:00:31;;;;;;;1.27;0.50;;;;;;;2.25;100.00;100115.41;1752267;81;21333;-58
2022/12/28 06:03:00;;;;;;;2.05;0.62;;;;;;;2.25;100.00;100117.17;1752280;81;20902;-59
2022/12/28 06:05:28;;;;;;;3.47;0.70;;;;;;;2.27;100.00;100117.84;1753575;81;21177;-65
2022/12/28 06:07:56;;;;;;;1.80;0.53;;;;;;;2.28;100.00;100119.48;1765067;81;21469;-59
2022/12/28 06:10:23;;;;;;;1.45;0.70;;;;;;;2.30;100.00;100118.87;1765139;81;21007;-60
2022/12/28 06:12:51;;;;;;;1.35;0.60;;;;;;;2.31;100.00;100121.33;1765904;81;20961;-59
2022/12/28 06:15:18;;;;;;;2.47;0.53;;;;;;;2.33;100.00;100118.61;1765431;81;21493;-61
2022/12/28 06:17:45;;;;;;;2.45;0.70;;;;;;;2.35;100.00;100121.39;1764727;81;21090;-64
2022/12/28 06:20:13;;;;;;;1.62;0.65;;;;;;;2.35;100.00;100125.70;1765507;81;21236;-59
2022/12/28 06:22:40;;;;;;;2.17;0.68;;;;;;;2.36;100.00;100120.44;1765359;81;20932;-58
2022/12/28 06:25:09;;;;;;;2.55;0.80;;;;;;;2.36;100.00;100127.34;1765187;81;21000;-59
2022/12/28 06:27:36;;;;;;;2.90;1.02;;;;;;;2.36;100.00;100126.06;1765489;81;21024;-66
2022/12/28 06:30:05;;;;;;;2.22;0.70;;;;;;;2.34;100.00;100127.46;1765880;81;21545;-58
2022/12/28 06:32:33;;;;;;;5.08;1.00;;;;;;;2.33;100.00;100135.33;1765704;81;21268;-58
2022/12/28 06:35:01;;;;;;;1.65;0.60;;;;;;;2.32;100.00;100136.28;1765941;81;20948;-59
2022/12/28 06:37:28;;;;;;;1.87;0.80;;;;;;;2.31;100.00;100137.20;1766122;81;20932;-66
2022/12/28 06:39:55;;;;;;;1.98;0.80;;;;;;;2.31;100.00;100137.20;1765620;81;21121;-58
2022/12/28 06:42:23;;;;;;;2.10;0.78;;;;;;;2.32;100.00;100142.70;1765817;81;21015;-59
2022/12/28 06:44:51;;;;;;;1.50;0.50;;;;;;;2.36;100.00;100143.59;1765148;81;21108;-59
2022/12/28 06:47:18;;;;;;;3.62;1.37;;;;;;;2.37;100.00;100138.78;1765860;81;21513;-60
2022/12/28 06:49:46;;;;;;;2.12;0.70;;;;;;;2.39;100.00;100139.95;1764844;81;21047;-60
2022/12/28 06:52:13;;;;;;;2.67;0.80;;;;;;;2.40;100.00;100144.14;1765457;81;21470;-58
2022/12/28 06:54:41;;;;;;;2.67;0.60;;;;;;;2.44;100.00;100145.02;1765661;81;21075;-58
2022/12/28 06:57:08;;;;;;;2.02;0.72;;;;;;;2.49;100.00;100148.47;1765833;81;21231;-58
2022/12/28 06:59:35;;;;;;;3.33;1.07;;;;;;;2.55;100.00;100145.37;1764946;81;21698;-63
2022/12/28 07:02:02;;;;;;;2.45;0.78;;;;;;;2.59;100.00;100154.45;1765299;81;21015;-59
2022/12/28 07:04:31;;;;;;;2.62;0.70;;;;;;;2.65;100.00;100156.50;1765589;81;20988;-59
2022/12/28 07:06:58;;;;;;;3.05;0.80;;;;;;;2.71;100.00;100157.71;1765590;81;21047;-58
2022/12/28 07:09:27;;;;;;;3.40;0.95;;;;;;;2.74;100.00;100154.06;1765444;81;20885;-59
2022/12/28 07:11:54;;;;;;;3.22;0.98;;;;;;;2.72;100.00;100150.80;1764812;81;21310;-59
2022/12/28 07:14:21;;;;;;;2.55;0.95;;;;;;;2.75;100.00;100158.26;1765449;81;21023;-59
2022/12/28 07:16:48;;;;;;;3.58;0.78;;;;;;;2.78;100.00;100163.95;1765655;81;20952;-58
2022/12/28 07:19:16;;;;;;;3.45;1.02;;;;;;;2.79;100.00;100163.47;1765989;81;21011;-64
2022/12/28 07:21:43;;;;;;;2.20;0.50;;;;;;;2.81;100.00;100174.46;1764915;81;21437;-61
2022/12/28 07:24:10;;;;;;;3.15;0.95;;;;;;;2.85;100.00;100180.48;1765599;81;21434;-59
2022/12/28 07:26:38;;;;;;;2.02;0.55;;;;;;;2.90;100.00;100183.45;1765000;81;21357;-59
2022/12/28 07:29:06;;;;;;;5.03;0.60;;;;;;;2.96;100.00;100182.59;1764470;81;20889;-58
2022/12/28 07:31:36;;;;;;;5.03;0.82;;;;;;;3.03;100.00;100182.37;1765017;81;20975;-60
2022/12/28 07:34:03;;;;;;;3.40;0.50;;;;;;;3.06;100.00;100178.23;1765013;80;21188;-60
2022/12/28 07:36:31;;;;;;;2.92;0.70;;;;;;;3.08;100.00;100187.46;1765484;81;21516;-58
2022/12/28 07:38:58;;;;;;;2.58;0.70;;;;;;;3.12;100.00;100192.68;1765328;81;21048;-58
2022/12/28 07:41:35;;;;;;;3.58;0.80;;;;;;;3.15;100.00;100200.14;1765218;81;20991;-59
2022/12/28 07:44:00;;;;;;;2.25;0.70;;;;;;;3.23;100.00;100195.59;1764331;80;21433;-67
2022/12/28 07:46:33;;;;;;;2.75;0.50;;;;;;;3.30;100.00;100208.27;1765408;81;22214;-60
2022/12/28 07:49:00;;;;;;;6.55;1.02;;;;;;;3.33;100.00;100212.31;1765759;81;21490;-60
2022/12/28 07:51:33;;;;;;;3.27;0.85;;;;;;;3.36;100.00;100216.72;1764940;81;21055;-60
2022/12/28 07:54:00;;;;;;;2.45;0.50;;;;;;;3.38;100.00;100217.88;1764786;81;20980;-63
2022/12/28 07:56:28;;;;;;;3.92;0.55;;;;;;;3.36;100.00;100227.50;1764882;81;21725;-60
2022/12/28 07:58:58;;;;;;;2.42;0.80;;;;;;;3.37;100.00;100228.67;1764829;81;21161;-59
2022/12/28 08:01:27;;;;;;;2.22;0.40;;;;;;;3.38;100.00;100228.19;1764676;81;21062;-59
2022/12/28 08:03:56;;;;;;;3.17;0.72;;;;;;;3.41;100.00;100226.63;1765120;81;21019;-60
2022/12/28 08:06:24;;;;;;;3.47;0.82;;;;;;;3.43;100.00;100226.48;1762553;81;21043;-59
2022/12/28 08:08:54;;;;;;;2.45;0.60;;;;;;;3.43;100.00;100224.72;1755023;81;21056;-60
2022/12/28 08:11:24;;;;;;;3.27;0.82;;;;;;;3.44;100.00;100232.78;1755375;81;21357;-60
2022/12/28 08:13:53;;;;;;;3.83;0.80;;;;;;;3.44;100.00;100230.68;1754467;81;21006;-62
2022/12/28 08:16:21;;;;;;;2.12;0.50;;;;;;;3.40;100.00;100233.52;1755059;81;21459;-59
2022/12/28 08:18:48;;;;;;;4.20;0.78;;;;;;;3.39;100.00;100232.39;1755240;81;20993;-59
2022/12/28 08:21:18;;;;;;;2.12;0.78;;;;;;;3.41;100.00;100221.48;1755336;81;21513;-61
2022/12/28 08:23:45;;;;;;;3.95;0.80;;;;;;;3.40;100.00;100231.42;1755048;81;22202;-61
2022/12/28 08:26:18;;;;;;;2.83;0.68;;;;;;;3.47;100.00;100229.93;1755314;81;20987;-59
2022/12/28 08:28:46;;;;;;;2.42;0.70;;;;;;;3.52;100.00;100226.94;1754847;81;21005;-59
2022/12/28 08:31:16;;;;;;;3.30;1.05;;;;;;;3.56;100.00;100235.56;1755162;81;21052;-60
2022/12/28 08:33:44;;;;;;;2.22;0.57;;;;;;;3.56;100.00;100230.41;1754870;81;21487;-60
2022/12/28 08:36:11;;;;;;;3.55;0.80;;;;;;;3.58;100.00;100229.78;1754831;81;21852;-59
2022/12/28 08:38:39;;;;;;;4.08;0.68;;;;;;;3.66;100.00;100231.66;1754973;81;21466;-59
2022/12/28 08:41:08;;;;;;;2.37;0.60;;;;;;;3.75;100.00;100236.45;1755604;81;21454;-62
2022/12/28 08:43:35;;;;;;;2.90;0.80;;;;;;;3.84;100.00;100222.74;1755035;81;20854;-67
2022/12/28 08:46:07;;;;;;;4.00;1.02;;;;;;;3.93;100.00;100229.63;1755282;81;21057;-59
2022/12/28 08:48:34;;;;;;;3.05;0.70;;;;;;;3.98;100.00;100230.03;1755546;81;21240;-59
2022/12/28 08:51:03;;;;;;;2.87;0.80;;;;;;;4.01;100.00;100225.86;1755643;81;20897;-58
2022/12/28 08:53:30;;;;;;;3.70;0.85;;;;;;;3.93;100.00;100226.23;1755635;81;21036;-66
2022/12/28 08:56:10;;;;;;;2.67;0.80;;;;;;;3.90;100.00;100226.03;1755046;81;20976;-59
2022/12/28 08:58:38;;;;;;;2.47;0.60;;;;;;;3.92;100.00;100236.22;1752776;81;21516;-59
2022/12/28 09:01:13;;;;;;;3.02;0.75;;;;;;;3.95;100.00;100234.17;1755417;81;21330;-59
2022/12/28 09:03:43;;;;;;;3.90;0.70;;;;;;;3.95;100.00;100241.11;1754255;81;20985;-60
2022/12/28 09:06:16;;;;;;;2.55;0.70;;;;;;;3.95;100.00;100247.55;1755107;81;21709;-61
2022/12/28 09:08:43;;;;;;;2.83;1.00;;;;;;;3.95;100.00;100248.36;1754534;81;20949;-59
2022/12/28 09:11:12;;;;;;;2.17;0.70;;;;;;;3.97;100.00;100247.73;1754894;81;21166;-61
2022/12/28 09:13:39;;;;;;;2.70;0.80;;;;;;;4.02;100.00;100252.01;1754845;81;21219;-67
2022/12/28 09:16:14;;;;;;;2.65;0.90;;;;;;;4.06;100.00;100244.33;1755294;81;21648;-59
2022/12/28 09:18:42;;;;;;;2.67;0.93;;;;;;;4.18;100.00;100247.53;1755212;81;21005;-59
2022/12/28 09:21:16;;;;;;;2.90;0.87;;;;;;;4.32;100.00;100244.50;1754811;81;20992;-60
2022/12/28 09:23:44;;;;;;;3.20;1.27;;;;;;;4.45;100.00;100245.45;1754884;81;21562;-60
2022/12/28 09:26:14;;;;;;;2.77;0.80;;;;;;;4.62;100.00;100238.69;1754725;81;21734;-61
2022/12/28 09:28:49;;;;;;;2.40;0.87;;;;;;;4.76;100.00;100241.27;1755088;81;21111;-61
2022/12/28 09:31:17;;;;;;;2.65;0.72;;;;;;;4.86;100.00;100241.54;1755145;81;21607;-67
2022/12/28 09:34:00;;;;;;;3.83;1.10;;;;;;;4.91;100.00;100253.20;1754605;81;20897;-60
2022/12/28 09:36:41;;;;;;;3.10;1.00;;;;;;;4.86;100.00;100246.70;1754825;81;21171;-64
2022/12/28 09:39:18;;;;;;;5.22;1.10;;;;;;;4.85;100.00;100261.06;1755022;81;21231;-67
2022/12/28 09:42:11;;;;;;;4.97;1.17;;;;;;;4.84;100.00;100248.61;1755383;81;21036;-60
2022/12/28 09:45:00;;;;;;;4.67;1.10;;;;;;;4.79;100.00;100260.34;1754803;81;21310;-60
2022/12/28 09:47:43;;;;;;;3.00;0.90;;;;;;;4.77;100.00;100267.41;1755550;81;21293;-67
2022/12/28 09:50:30;;;;;;;2.53;0.87;;;;;;;4.75;100.00;100268.86;1754967;81;21228;-67
2022/12/28 09:53:25;;;;;;;3.03;0.93;;;;;;;4.75;100.00;100271.44;1754776;81;21324;-68
2022/12/28 09:56:03;;;;;;;2.87;0.87;;;;;;;4.70;100.00;100263.78;1754758;81;21034;-60
2022/12/28 09:58:33;;;;;;;3.60;0.73;;;;;;;4.64;100.00;100279.38;1754864;81;21209;-65
2022/12/28 10:01:01;;;;;;;4.07;1.03;;;;;;;4.66;100.00;100275.36;1727823;81;21287;-60
2022/12/28 10:03:38;;;;;;;2.87;1.13;;;;;;;4.66;100.00;100281.36;1754890;81;21229;-63
2022/12/28 10:06:21;;;;;;;4.20;1.00;;;;;;;4.57;100.00;100280.42;1755491;81;22128;-60
2022/12/28 10:08:52;;;;;;;2.90;0.90;;;;;;;4.52;100.00;100281.83;1765117;81;21515;-61
2022/12/28 10:11:25;;;;;;;2.93;0.87;;;;;;;4.48;100.00;100285.17;1764415;81;21242;-61
2022/12/28 10:13:56;;;;;;;4.10;1.07;;;;;;;4.49;100.00;100289.37;1764529;80;21294;-69
2022/12/28 10:16:26;;;;;;;4.87;1.30;;;;;;;4.45;100.00;100294.48;1765395;80;21891;-61
2022/12/28 10:18:53;;;;;;;4.23;1.20;;;;;;;4.41;100.00;100287.17;1765571;80;21198;-61
2022/12/28 10:21:22;;;;;;;4.83;1.10;;;;;;;4.38;100.00;100294.72;1764831;81;21795;-61
2022/12/28 10:23:51;;;;;;;3.92;1.55;;;;;;;4.31;100.00;100297.04;1745923;81;20995;-67
2022/12/28 10:26:19;;;;;;;5.00;1.30;;;;;;;4.24;100.00;100300.33;1764843;81;21179;-61
2022/12/28 10:28:51;;;;;;;5.25;1.65;;;;;;;4.16;100.00;100293.28;1765134;81;21244;-61
2022/12/28 10:31:36;;;;;;;5.47;1.27;;;;;;;4.12;100.00;100307.42;1765573;81;21307;-61
2022/12/28 10:34:19;;;;;;;4.57;1.20;;;;;;;4.13;100.00;100304.72;1764580;80;21054;-60
2022/12/28 10:36:47;;;;;;;2.67;0.80;;;;;;;4.15;100.00;100301.51;1765602;81;21190;-61
2022/12/28 10:39:24;;;;;;;4.23;1.07;;;;;;;4.18;100.00;100293.98;1765594;81;21774;-60
2022/12/28 10:41:53;;;;;;;4.00;1.15;;;;;;;4.22;100.00;100299.67;1745669;81;21551;-60
2022/12/28 10:44:33;;;;;;;6.67;1.30;;;;;;;4.27;100.00;100303.92;1765344;81;22115;-63
2022/12/28 10:47:06;;;;;;;3.50;1.00;;;;;;;4.29;100.00;100318.31;1765002;80;20964;-67
2022/12/28 10:49:35;;;;;;;4.97;1.80;;;;;;;4.26;100.00;100310.85;1765315;81;21109;-61
2022/12/28 10:52:18;;;;;;;5.43;1.53;;;;;;;4.17;100.00;100323.77;1765051;81;21537;-68
2022/12/28 10:54:46;;;;;;;3.85;1.60;;;;;;;4.05;100.00;100320.53;1764956;81;21111;-63
2022/12/28 10:57:30;;;;;;;4.35;1.45;;;;;;;3.99;100.00;100323.21;1765586;81;21071;-61
2022/12/28 11:00:15;;;;;;;5.28;1.98;;;;;;;3.96;100.00;100326.06;1765178;81;20975;-61
2022/12/28 11:02:42;;;;;;;4.80;1.50;;;;;;;3.96;100.00;100324.77;1759352;80;21027;-61
2022/12/28 11:05:20;;;;;;;4.78;1.77;;;;;;;4.01;100.00;100339.83;1765832;81;21196;-62
2022/12/28 11:07:47;;;;;;;3.47;1.35;;;;;;;4.06;100.00;100335.89;1760858;80;21054;-60
2022/12/28 11:10:29;;;;;;;5.50;1.60;;;;;;;4.13;100.00;100345.19;1754465;81;21148;-68
2022/12/28 11:12:58;;;;;;;6.40;1.70;;;;;;;4.22;100.00;100351.27;1753996;81;21063;-68
2022/12/28 11:15:29;;;;;;;6.33;1.77;;;;;;;4.25;100.00;100345.36;1754732;81;21111;-61
2022/12/28 11:18:03;;;;;;;4.62;1.62;;;;;;;4.30;100.00;100356.55;1754668;81;21355;-68
2022/12/28 11:20:37;;;;;;;4.20;1.77;;;;;;;4.34;100.00;100359.17;1753468;81;20956;-61
2022/12/28 11:23:05;;;;;;;3.52;1.10;;;;;;;4.44;100.00;100363.03;1752441;81;21214;-62
2022/12/28 11:25:33;;;;;;;4.27;1.30;;;;;;;4.53;100.00;100368.15;1755680;81;21034;-60
2022/12/28 11:28:07;;;;;;;4.40;1.23;;;;;;;4.62;100.00;100369.91;1754864;81;21329;-61
2022/12/28 11:30:34;;;;;;;3.60;1.20;;;;;;;4.67;100.00;100366.08;1754872;81;21072;-60
2022/12/28 11:33:03;;;;;;;5.60;1.03;;;;;;;4.69;100.00;100358.98;1753643;81;21702;-61
2022/12/28 11:35:33;;;;;;;4.23;1.37;;;;;;;4.69;100.00;100364.16;1755132;81;21668;-61
2022/12/28 11:38:02;;;;;;;4.93;1.77;;;;;;;4.67;100.00;100371.24;1754714;81;21228;-60
2022/12/28 11:40:47;;;;;;;5.03;1.57;;;;;;;4.60;100.00;100375.67;1755187;81;21344;-60
2022/12/28 11:43:38;;;;;;;3.93;1.20;;;;;;;4.55;100.00;100375.77;1755576;81;21835;-60
2022/12/28 11:46:22;;;;;;;6.13;1.40;;;;;;;4.49;100.00;100378.42;1755329;81;21108;-61
2022/12/28 11:49:06;;;;;;;3.30;1.47;;;;;;;4.43;100.00;100388.00;1752822;81;21213;-61
2022/12/28 11:51:35;;;;;;;3.23;1.47;;;;;;;4.37;100.00;100377.78;1746753;81;21372;-61
2022/12/28 11:54:41;;;;;;;3.30;1.13;;;;;;;4.34;100.00;100379.83;1754690;81;21201;-59
2022/12/28 11:57:09;;;;;;;4.83;1.17;;;;;;;4.31;100.00;100385.26;1720062;83;21104;-67
2022/12/28 11:59:37;;;;;;;6.23;1.30;;;;;;;4.23;100.00;100384.66;1667034;85;21451;-59
2022/12/28 12:02:27;;;;;;;4.08;1.40;;;;;;;4.19;100.00;100390.24;1755364;81;22040;-60
2022/12/28 12:04:54;;;;;;;4.97;1.40;;;;;;;4.17;100.00;100397.30;1754568;81;21058;-67
2022/12/28 12:07:25;;;;;;;4.00;1.40;;;;;;;4.13;100.00;100397.59;1755555;81;21039;-59
2022/12/28 12:10:20;;;;;;;4.45;1.55;;;;;;;4.09;100.00;100396.24;1759905;81;20996;-60
2022/12/28 12:12:50;;;;;;;4.17;1.50;;;;;;;4.06;100.00;100408.60;1759674;80;21055;-59